createdAt,value
2017-12-29T00:01:06.042Z,15.33
2017-12-29T00:03:33.520Z,10.40
2017-12-29T00:06:01.751Z,13.73
2017-12-29T00:08:30.003Z,17.40
2017-12-29T00:10:57.463Z,10.20
2017-12-29T00:13:24.961Z,11.43
2017-12-29T00:15:52.427Z,12.00
2017-12-29T00:18:20.675Z,9.63
2017-12-29T00:20:48.137Z,11.53
2017-12-29T00:23:15.612Z,13.63
2017-12-29T00:25:43.328Z,9.43
2017-12-29T00:28:10.808Z,8.70
2017-12-29T00:30:39.047Z,12.27
2017-12-29T00:33:06.539Z,10.50
2017-12-29T00:35:34.036Z,9.73
2017-12-29T00:38:01.517Z,13.87
2017-12-29T00:40:29.002Z,11.23
2017-12-29T00:42:56.468Z,13.90
2017-12-29T00:45:24.060Z,17.30
2017-12-29T00:47:51.529Z,10.00
2017-12-29T00:50:19.784Z,11.67
2017-12-29T00:52:47.251Z,11.70
2017-12-29T00:55:14.724Z,14.30
2017-12-29T00:57:42.987Z,17.73
2017-12-29T01:00:10.457Z,20.23
2017-12-29T01:02:38.697Z,17.33
2017-12-29T01:05:06.180Z,13.87
2017-12-29T01:07:33.646Z,23.37
2017-12-29T01:10:01.912Z,15.37
2017-12-29T01:12:29.367Z,11.83
2017-12-29T01:14:56.842Z,12.40
2017-12-29T01:17:25.079Z,12.50
2017-12-29T01:19:52.555Z,10.10
2017-12-29T01:22:20.015Z,15.67
2017-12-29T01:24:47.478Z,9.50
2017-12-29T01:27:14.943Z,13.60
2017-12-29T01:29:42.432Z,9.23
2017-12-29T01:32:09.881Z,13.30
2017-12-29T01:34:37.363Z,16.97
2017-12-29T01:37:04.834Z,18.57
2017-12-29T01:39:32.303Z,20.43
2017-12-29T01:41:59.779Z,10.67
2017-12-29T01:44:27.262Z,19.40
2017-12-29T01:46:55.488Z,10.60
2017-12-29T01:49:22.960Z,15.00
2017-12-29T01:51:50.431Z,13.50
2017-12-29T01:54:17.908Z,8.90
2017-12-29T01:56:45.383Z,9.70
2017-12-29T01:59:12.897Z,10.23
2017-12-29T02:01:40.336Z,12.23
2017-12-29T02:04:07.830Z,13.27
2017-12-29T02:06:35.306Z,12.80
2017-12-29T02:09:03.540Z,12.80
2017-12-29T02:11:31.035Z,10.87
2017-12-29T02:13:59.264Z,16.67
2017-12-29T02:16:26.740Z,10.83
2017-12-29T02:18:54.203Z,6.73
2017-12-29T02:21:21.678Z,13.37
2017-12-29T02:23:49.924Z,12.73
2017-12-29T02:26:17.395Z,10.33
2017-12-29T02:28:44.866Z,11.13
2017-12-29T02:31:12.334Z,10.63
2017-12-29T02:33:40.567Z,10.00
2017-12-29T02:36:08.036Z,11.00
2017-12-29T02:38:35.500Z,13.87
2017-12-29T02:41:02.967Z,11.33
2017-12-29T02:43:30.440Z,10.47
2017-12-29T02:45:58.668Z,8.33
2017-12-29T02:48:26.140Z,8.80
2017-12-29T02:50:53.616Z,13.17
2017-12-29T02:53:21.088Z,9.47
2017-12-29T02:55:49.314Z,9.57
2017-12-29T02:58:16.795Z,14.37
2017-12-29T03:00:44.259Z,9.70
2017-12-29T03:03:11.734Z,12.53
2017-12-29T03:05:39.218Z,11.10
2017-12-29T03:08:06.704Z,10.00
2017-12-29T03:10:34.175Z,9.97
2017-12-29T03:13:01.650Z,9.60
2017-12-29T03:15:29.119Z,17.07
2017-12-29T03:17:56.628Z,11.67
2017-12-29T03:20:24.086Z,11.57
2017-12-29T03:22:51.554Z,16.13
2017-12-29T03:25:19.016Z,8.03
2017-12-29T03:27:46.503Z,8.43
2017-12-29T03:30:14.812Z,9.40
2017-12-29T03:32:43.042Z,12.13
2017-12-29T03:35:10.497Z,8.30
2017-12-29T03:37:37.973Z,10.20
2017-12-29T03:40:05.429Z,7.60
2017-12-29T03:42:32.911Z,11.17
2017-12-29T03:45:01.132Z,6.40
2017-12-29T03:47:28.621Z,10.50
2017-12-29T03:49:56.089Z,12.73
2017-12-29T03:52:23.550Z,13.13
2017-12-29T03:54:51.013Z,11.50
2017-12-29T03:57:19.242Z,10.10
2017-12-29T03:59:46.722Z,11.03
2017-12-29T04:02:14.176Z,10.60
2017-12-29T04:04:41.669Z,13.10
2017-12-29T04:07:09.888Z,13.07
2017-12-29T04:09:37.357Z,12.20
2017-12-29T04:12:04.814Z,9.20
2017-12-29T04:14:32.295Z,11.30
2017-12-29T04:16:59.752Z,16.50
2017-12-29T04:19:27.987Z,12.50
2017-12-29T04:21:55.453Z,13.07
2017-12-29T04:24:22.922Z,6.90
2017-12-29T04:26:50.377Z,9.37
2017-12-29T04:29:17.845Z,11.93
2017-12-29T04:31:45.314Z,12.87
2017-12-29T04:34:12.798Z,12.20
2017-12-29T04:36:41.042Z,10.00
2017-12-29T04:39:08.515Z,12.73
2017-12-29T04:41:35.978Z,9.87
2017-12-29T04:44:03.457Z,12.03
2017-12-29T04:46:31.693Z,8.83
2017-12-29T04:48:59.164Z,19.67
2017-12-29T04:51:26.629Z,9.30
2017-12-29T04:53:54.106Z,7.80
2017-12-29T04:56:22.329Z,10.60
2017-12-29T04:58:49.806Z,10.03
2017-12-29T05:01:17.258Z,12.00
2017-12-29T05:03:44.729Z,20.30
2017-12-29T05:06:12.211Z,14.20
2017-12-29T05:08:40.443Z,7.70
2017-12-29T05:11:07.917Z,10.80
2017-12-29T05:13:35.374Z,8.00
2017-12-29T05:16:02.838Z,6.37
2017-12-29T05:18:30.310Z,10.57
2017-12-29T05:20:57.774Z,10.33
2017-12-29T05:23:26.006Z,8.83
2017-12-29T05:25:53.482Z,9.83
2017-12-29T05:28:20.942Z,11.93
2017-12-29T05:30:48.410Z,11.07
2017-12-29T05:33:26.034Z,8.60
2017-12-29T05:35:53.513Z,10.23
2017-12-29T05:38:20.978Z,9.43
2017-12-29T05:40:48.451Z,7.20
2017-12-29T05:43:15.915Z,11.10
2017-12-29T05:45:43.377Z,10.90
2017-12-29T05:48:10.851Z,10.20
2017-12-29T05:50:38.326Z,7.07
2017-12-29T05:53:06.557Z,14.67
2017-12-29T05:55:34.038Z,13.53
2017-12-29T05:58:01.499Z,9.50
2017-12-29T06:00:29.005Z,10.90
2017-12-29T06:02:56.470Z,8.20
2017-12-29T06:05:23.941Z,13.47
2017-12-29T06:07:51.401Z,14.07
2017-12-29T06:10:18.882Z,9.70
2017-12-29T06:12:46.353Z,7.57
2017-12-29T06:15:13.809Z,8.60
2017-12-29T06:17:41.266Z,9.93
2017-12-29T06:20:08.734Z,13.57
2017-12-29T06:22:36.976Z,10.43
2017-12-29T06:25:04.443Z,11.90
2017-12-29T06:27:31.923Z,10.80
2017-12-29T06:29:59.407Z,10.00
2017-12-29T06:32:27.974Z,9.17
2017-12-29T06:34:55.450Z,12.60
2017-12-29T06:37:22.934Z,8.60
2017-12-29T06:39:50.384Z,5.77
2017-12-29T06:42:17.874Z,7.60
2017-12-29T06:44:45.334Z,12.73
2017-12-29T06:47:12.800Z,8.30
2017-12-29T06:49:40.258Z,9.03
2017-12-29T06:52:07.735Z,7.93
2017-12-29T06:54:35.986Z,13.20
2017-12-29T06:57:03.476Z,5.37
2017-12-29T06:59:30.933Z,8.87
2017-12-29T07:01:59.177Z,9.13
2017-12-29T07:04:26.708Z,13.80
2017-12-29T07:06:54.184Z,8.40
2017-12-29T07:09:21.662Z,8.40
2017-12-29T07:11:49.123Z,13.93
2017-12-29T07:14:16.593Z,16.93
2017-12-29T07:16:44.859Z,10.43
2017-12-29T07:19:12.304Z,10.90
2017-12-29T07:21:39.807Z,12.67
2017-12-29T07:24:08.026Z,6.30
2017-12-29T07:26:35.495Z,9.20
2017-12-29T07:29:02.972Z,8.47
2017-12-29T07:31:30.446Z,11.00
2017-12-29T07:33:58.679Z,12.20
2017-12-29T07:36:26.155Z,7.60
2017-12-29T07:38:53.622Z,10.33
2017-12-29T07:41:21.101Z,9.37
2017-12-29T07:43:49.336Z,11.60
2017-12-29T07:46:16.778Z,10.57
2017-12-29T07:48:44.263Z,13.13
2017-12-29T07:51:12.565Z,8.77
2017-12-29T07:53:40.794Z,9.20
2017-12-29T07:56:08.294Z,13.83
2017-12-29T07:58:35.798Z,6.30
2017-12-29T08:01:03.286Z,9.63
2017-12-29T08:03:30.750Z,8.43
2017-12-29T08:05:58.236Z,10.90
2017-12-29T08:08:26.474Z,11.30
2017-12-29T08:10:53.949Z,18.23
2017-12-29T08:13:21.460Z,16.73
2017-12-29T08:15:48.927Z,9.30
2017-12-29T08:18:16.396Z,5.30
2017-12-29T08:20:43.846Z,8.50
2017-12-29T08:23:11.318Z,9.27
2017-12-29T08:25:39.546Z,9.83
2017-12-29T08:28:07.787Z,5.77
2017-12-29T08:30:35.286Z,8.50
2017-12-29T08:33:02.754Z,8.33
2017-12-29T08:35:30.209Z,6.77
2017-12-29T08:37:57.677Z,5.40
2017-12-29T08:40:25.148Z,8.17
2017-12-29T08:42:52.621Z,8.97
2017-12-29T08:45:20.074Z,6.00
2017-12-29T08:47:47.599Z,12.03
2017-12-29T08:50:15.068Z,8.30
2017-12-29T08:52:42.583Z,12.13
2017-12-29T08:55:10.046Z,7.20
2017-12-29T08:57:38.289Z,6.13
2017-12-29T09:00:05.746Z,11.57
2017-12-29T09:02:33.585Z,10.30
2017-12-29T09:05:01.101Z,8.97
2017-12-29T09:07:28.612Z,11.40
2017-12-29T09:09:56.115Z,9.40
2017-12-29T09:12:23.581Z,8.50
2017-12-29T09:14:51.802Z,7.60
2017-12-29T09:17:19.423Z,11.20
2017-12-29T09:19:46.858Z,8.20
2017-12-29T09:22:14.330Z,8.60
2017-12-29T09:24:41.787Z,7.33
2017-12-29T09:27:10.022Z,5.90
2017-12-29T09:29:37.509Z,9.47
2017-12-29T09:32:04.969Z,10.50
2017-12-29T09:34:32.440Z,7.00
2017-12-29T09:37:00.666Z,5.20
2017-12-29T09:39:28.133Z,9.57
2017-12-29T09:41:56.488Z,5.17
2017-12-29T09:44:23.985Z,5.80
2017-12-29T09:46:51.453Z,7.57
2017-12-29T09:49:18.942Z,6.43
2017-12-29T09:51:47.216Z,5.10
2017-12-29T09:54:15.517Z,8.07
2017-12-29T09:56:43.318Z,6.60
2017-12-29T09:59:11.626Z,9.67
2017-12-29T10:01:39.878Z,6.73
2017-12-29T10:04:07.349Z,5.30
2017-12-29T10:06:34.817Z,6.20
2017-12-29T10:09:03.127Z,8.20
2017-12-29T10:11:30.787Z,7.57
2017-12-29T10:13:58.279Z,6.67
2017-12-29T10:16:25.855Z,4.63
2017-12-29T10:18:54.065Z,5.30
2017-12-29T10:21:22.300Z,9.07
2017-12-29T10:23:49.782Z,5.20
2017-12-29T10:26:17.239Z,3.97
2017-12-29T10:28:44.702Z,4.37
2017-12-29T10:31:12.928Z,3.23
2017-12-29T10:33:40.413Z,5.57
2017-12-29T10:36:07.881Z,5.67
2017-12-29T10:38:35.355Z,9.03
2017-12-29T10:41:03.603Z,3.40
2017-12-29T10:43:31.063Z,5.93
2017-12-29T10:45:58.526Z,5.30
2017-12-29T10:48:26.002Z,6.63
2017-12-29T10:50:54.245Z,4.97
2017-12-29T10:53:21.726Z,5.50
2017-12-29T10:55:49.189Z,5.33
2017-12-29T10:58:16.665Z,4.63
2017-12-29T11:00:44.902Z,5.17
2017-12-29T11:03:12.374Z,2.77
2017-12-29T11:05:39.932Z,2.57
2017-12-29T11:08:08.189Z,4.30
2017-12-29T11:10:35.687Z,2.73
2017-12-29T11:13:03.931Z,4.77
2017-12-29T11:15:31.389Z,4.00
2017-12-29T11:17:58.872Z,7.17
2017-12-29T11:20:26.350Z,11.33
2017-12-29T11:22:54.606Z,5.23
2017-12-29T11:25:22.074Z,4.53
2017-12-29T11:27:50.306Z,9.23
2017-12-29T11:30:17.790Z,5.43
2017-12-29T11:32:46.055Z,5.33
2017-12-29T11:35:13.518Z,3.90
2017-12-29T11:37:40.976Z,4.10
2017-12-29T11:40:08.450Z,6.30
2017-12-29T11:42:35.910Z,3.90
2017-12-29T11:45:04.166Z,2.20
2017-12-29T11:47:31.626Z,6.83
2017-12-29T11:49:59.095Z,4.20
2017-12-29T11:52:26.578Z,3.80
2017-12-29T11:54:54.062Z,2.00
2017-12-29T11:57:21.524Z,9.17
2017-12-29T11:59:48.994Z,7.80
2017-12-29T12:02:16.460Z,3.67
2017-12-29T12:04:43.933Z,6.00
2017-12-29T12:07:11.390Z,4.67
2017-12-29T12:09:38.897Z,5.33
2017-12-29T12:12:07.932Z,6.60
2017-12-29T12:14:35.412Z,4.43
2017-12-29T12:17:02.856Z,4.30
2017-12-29T12:19:30.334Z,3.27
2017-12-29T12:21:57.798Z,2.97
2017-12-29T12:24:26.026Z,4.93
2017-12-29T12:26:53.486Z,4.23
2017-12-29T12:29:20.960Z,6.37
2017-12-29T12:31:48.424Z,4.53
2017-12-29T12:34:15.895Z,2.50
2017-12-29T12:36:43.360Z,2.53
2017-12-29T12:39:11.594Z,3.43
2017-12-29T12:41:39.054Z,3.20
2017-12-29T12:44:06.526Z,5.30
2017-12-29T12:46:34.003Z,7.00
2017-12-29T12:49:01.465Z,7.20
2017-12-29T12:51:28.922Z,5.33
2017-12-29T12:53:56.401Z,2.63
2017-12-29T12:56:24.635Z,2.67
2017-12-29T12:58:52.099Z,1.93
2017-12-29T13:01:19.567Z,2.03
2017-12-29T13:03:47.046Z,3.13
2017-12-29T13:06:15.391Z,3.47
2017-12-29T13:08:42.852Z,4.90
2017-12-29T13:11:10.334Z,3.33
2017-12-29T13:13:38.562Z,4.87
2017-12-29T13:16:06.038Z,3.33
2017-12-29T13:18:33.499Z,2.73
2017-12-29T13:21:00.961Z,2.13
2017-12-29T13:23:28.443Z,2.70
2017-12-29T13:25:56.682Z,3.70
2017-12-29T13:28:24.137Z,3.50
2017-12-29T13:30:51.605Z,4.50
2017-12-29T13:33:19.070Z,4.73
2017-12-29T13:35:46.538Z,3.33
2017-12-29T13:38:13.997Z,3.20
2017-12-29T13:40:41.468Z,6.73
2017-12-29T13:43:09.691Z,4.23
2017-12-29T13:45:37.169Z,2.83
2017-12-29T13:48:04.631Z,4.33
2017-12-29T13:50:32.114Z,3.90
2017-12-29T13:52:59.565Z,3.60
2017-12-29T13:55:27.831Z,1.70
2017-12-29T13:57:57.259Z,3.53
2017-12-29T14:00:25.502Z,3.00
2017-12-29T14:02:53.015Z,3.67
2017-12-29T14:05:20.485Z,3.40
2017-12-29T14:07:47.962Z,3.83
2017-12-29T14:10:15.434Z,3.33
2017-12-29T14:12:42.898Z,3.83
2017-12-29T14:15:10.437Z,3.80
2017-12-29T14:17:37.885Z,2.53
2017-12-29T14:20:05.355Z,2.27
2017-12-29T14:22:32.808Z,5.10
2017-12-29T14:25:00.286Z,3.07
2017-12-29T14:27:27.742Z,2.93
2017-12-29T14:29:55.999Z,1.77
2017-12-29T14:32:23.521Z,5.43
2017-12-29T14:34:50.992Z,4.80
2017-12-29T14:37:18.456Z,5.67
2017-12-29T14:39:45.930Z,4.13
2017-12-29T14:42:13.385Z,3.17
2017-12-29T14:44:41.697Z,2.50
2017-12-29T14:47:09.170Z,4.07
2017-12-29T14:49:37.442Z,7.20
2017-12-29T14:52:04.920Z,5.13
2017-12-29T14:54:33.151Z,5.40
2017-12-29T14:57:00.611Z,3.17
2017-12-29T14:59:28.077Z,2.37
2017-12-29T15:01:55.543Z,3.60
2017-12-29T15:04:23.002Z,2.60
2017-12-29T15:06:50.474Z,2.47
2017-12-29T15:09:18.702Z,2.53
2017-12-29T15:11:46.180Z,2.50
2017-12-29T15:14:13.653Z,3.93
2017-12-29T15:16:41.129Z,3.27
2017-12-29T15:19:09.653Z,3.77
2017-12-29T15:21:37.114Z,4.40
2017-12-29T15:24:04.576Z,3.53
2017-12-29T15:26:32.081Z,3.33
2017-12-29T15:28:59.553Z,2.60
2017-12-29T15:31:27.028Z,2.57
2017-12-29T15:33:54.489Z,3.73
2017-12-29T15:36:21.954Z,6.93
2017-12-29T15:38:49.467Z,2.63
2017-12-29T15:41:16.972Z,4.20
2017-12-29T15:43:44.442Z,2.70
2017-12-29T15:46:11.941Z,2.47
2017-12-29T15:48:40.196Z,4.33
2017-12-29T15:54:08.690Z,3.67
2017-12-29T15:56:36.170Z,4.57
2017-12-29T15:59:03.642Z,3.40
2017-12-29T16:01:38.529Z,6.73
2017-12-29T16:04:05.992Z,4.27
2017-12-29T16:06:33.466Z,6.57
2017-12-29T16:09:01.926Z,2.97
2017-12-29T16:11:29.409Z,2.97
2017-12-29T16:13:56.869Z,4.67
2017-12-29T16:16:24.331Z,2.33
2017-12-29T16:18:51.785Z,2.87
2017-12-29T16:21:19.259Z,3.37
2017-12-29T16:23:47.486Z,3.07
2017-12-29T16:26:15.714Z,5.70
2017-12-29T16:28:43.952Z,4.37
2017-12-29T16:31:11.489Z,4.20
2017-12-29T16:33:38.943Z,3.80
2017-12-29T16:36:06.426Z,2.70
2017-12-29T16:38:34.146Z,2.47
2017-12-29T16:41:02.404Z,3.50
2017-12-29T16:43:30.643Z,3.03
2017-12-29T16:45:58.105Z,6.13
2017-12-29T16:48:25.582Z,5.67
2017-12-29T16:50:53.099Z,2.47
2017-12-29T16:53:20.578Z,3.90
2017-12-29T16:55:48.053Z,4.10
2017-12-29T16:58:15.513Z,6.83
2017-12-29T17:00:42.988Z,5.47
2017-12-29T17:03:11.213Z,2.27
2017-12-29T17:05:38.688Z,2.03
2017-12-29T17:08:06.158Z,5.93
2017-12-29T17:10:33.621Z,4.47
2017-12-29T17:13:01.087Z,3.43
2017-12-29T17:15:28.550Z,4.57
2017-12-29T17:17:56.025Z,3.17
2017-12-29T17:20:24.294Z,4.43
2017-12-29T17:22:52.526Z,4.40
2017-12-29T17:25:20.019Z,2.20
2017-12-29T17:27:47.502Z,3.17
2017-12-29T17:30:15.727Z,3.90
2017-12-29T17:32:43.197Z,2.00
2017-12-29T17:35:11.179Z,3.10
2017-12-29T17:37:38.633Z,3.47
2017-12-29T17:40:06.106Z,2.10
2017-12-29T17:42:33.579Z,2.87
2017-12-29T17:45:01.829Z,2.50
2017-12-29T17:47:29.437Z,3.90
2017-12-29T17:49:56.898Z,3.33
2017-12-29T17:52:24.370Z,6.43
2017-12-29T17:54:52.630Z,2.77
2017-12-29T17:57:20.111Z,2.73
2017-12-29T17:59:47.585Z,5.70
2017-12-29T18:02:15.053Z,2.87
2017-12-29T18:04:42.555Z,4.20
2017-12-29T18:07:10.039Z,4.10
2017-12-29T18:09:37.533Z,3.60
2017-12-29T18:12:04.984Z,1.97
2017-12-29T18:14:32.451Z,3.53
2017-12-29T18:16:59.944Z,4.73
2017-12-29T18:19:27.423Z,3.00
2017-12-29T18:21:54.938Z,2.50
2017-12-29T18:24:23.179Z,8.23
2017-12-29T18:26:50.679Z,2.67
2017-12-29T18:29:18.925Z,6.50
2017-12-29T18:31:46.449Z,3.23
2017-12-29T18:34:13.906Z,3.23
2017-12-29T18:36:41.369Z,4.70
2017-12-29T18:39:08.835Z,2.70
2017-12-29T18:41:36.337Z,8.27
2017-12-29T18:44:04.571Z,2.47
2017-12-29T18:46:32.051Z,2.90
2017-12-29T18:48:59.525Z,5.40
2017-12-29T18:51:27.003Z,2.90
2017-12-29T18:53:55.238Z,3.23
2017-12-29T18:56:22.709Z,3.53
2017-12-29T18:58:50.217Z,3.03
2017-12-29T19:01:17.690Z,4.80
2017-12-29T19:03:45.163Z,3.23
2017-12-29T19:06:12.637Z,3.30
2017-12-29T19:08:40.105Z,3.27
2017-12-29T19:11:07.596Z,6.43
2017-12-29T19:13:35.058Z,4.53
2017-12-29T19:16:02.527Z,2.17
2017-12-29T19:18:30.004Z,2.50
2017-12-29T19:20:57.471Z,3.10
2017-12-29T19:23:25.041Z,2.97
2017-12-29T19:25:52.517Z,3.57
2017-12-29T19:28:20.006Z,3.00
2017-12-29T19:30:47.462Z,2.03
2017-12-29T19:33:14.946Z,4.70
2017-12-29T19:35:42.406Z,4.43
2017-12-29T19:38:09.912Z,7.03
2017-12-29T19:40:37.362Z,6.27
2017-12-29T19:43:04.830Z,2.87
2017-12-29T19:45:33.127Z,3.47
2017-12-29T19:48:00.627Z,3.10
2017-12-29T19:50:28.872Z,2.90
2017-12-29T19:52:56.350Z,2.10
2017-12-29T19:55:23.813Z,3.17
2017-12-29T19:57:51.291Z,2.87
2017-12-29T20:00:18.770Z,2.30
2017-12-29T20:02:47.815Z,5.40
2017-12-29T20:05:15.271Z,2.67
2017-12-29T20:07:42.740Z,2.77
2017-12-29T20:10:10.202Z,5.20
2017-12-29T20:12:37.709Z,2.30
2017-12-29T20:15:06.118Z,2.20
2017-12-29T20:17:33.609Z,3.70
2017-12-29T20:20:01.089Z,2.30
2017-12-29T20:22:28.561Z,3.13
2017-12-29T20:24:56.801Z,2.80
2017-12-29T20:27:24.275Z,2.83
2017-12-29T20:29:51.732Z,3.13
2017-12-29T20:32:19.207Z,4.00
2017-12-29T20:34:47.449Z,2.80
2017-12-29T20:37:14.904Z,7.20
2017-12-29T20:39:42.370Z,2.30
2017-12-29T20:42:09.825Z,2.57
2017-12-29T20:44:37.278Z,3.63
2017-12-29T20:47:04.754Z,4.97
2017-12-29T20:49:32.219Z,5.97
2017-12-29T20:52:00.246Z,2.50
2017-12-29T20:54:27.746Z,4.20
2017-12-29T20:56:55.241Z,4.80
2017-12-29T20:59:23.449Z,3.50
2017-12-29T21:01:50.904Z,3.27
2017-12-29T21:04:18.389Z,2.73
2017-12-29T21:06:45.854Z,3.97
2017-12-29T21:09:13.342Z,3.00
2017-12-29T21:11:41.570Z,3.80
2017-12-29T21:14:09.045Z,2.43
2017-12-29T21:16:36.522Z,2.43
2017-12-29T21:19:04.758Z,3.17
2017-12-29T21:21:32.225Z,4.10
2017-12-29T21:23:59.691Z,3.30
2017-12-29T21:26:27.163Z,3.33
2017-12-29T21:28:54.641Z,3.90
2017-12-29T21:31:22.888Z,4.50
2017-12-29T21:33:50.364Z,3.97
2017-12-29T21:36:19.334Z,4.43
2017-12-29T21:38:46.845Z,7.00
2017-12-29T21:41:14.311Z,4.50
2017-12-29T21:43:41.785Z,3.80
2017-12-29T21:46:09.254Z,2.00
2017-12-29T21:48:36.748Z,3.83
2017-12-29T21:51:04.202Z,3.47
2017-12-29T21:53:32.443Z,3.53
2017-12-29T21:56:00.031Z,3.17
2017-12-29T21:58:27.493Z,3.77
2017-12-29T22:00:54.962Z,2.60
2017-12-29T22:03:23.210Z,2.53
2017-12-29T22:05:50.674Z,2.47
2017-12-29T22:08:18.149Z,2.70
2017-12-29T22:10:46.404Z,2.60
2017-12-29T22:13:13.925Z,2.67
2017-12-29T22:15:41.381Z,1.87
2017-12-29T22:18:08.848Z,2.20
2017-12-29T22:20:36.317Z,2.33
2017-12-29T22:23:03.790Z,1.50
2017-12-29T22:25:31.393Z,2.10
2017-12-29T22:27:58.878Z,2.93
2017-12-29T22:30:26.338Z,1.70
2017-12-29T22:32:53.803Z,2.50
2017-12-29T22:35:21.302Z,1.80
2017-12-29T22:37:48.854Z,2.43
2017-12-29T22:40:16.332Z,1.90
2017-12-29T22:42:44.571Z,2.60
2017-12-29T22:45:12.036Z,3.07
2017-12-29T22:47:39.506Z,1.47
2017-12-29T22:50:06.980Z,2.27
2017-12-29T22:52:35.386Z,1.63
2017-12-29T22:55:02.848Z,2.23
2017-12-29T22:57:30.310Z,3.83
2017-12-29T22:59:57.780Z,3.20
2017-12-29T23:02:25.247Z,2.43
2017-12-29T23:04:52.717Z,2.20
2017-12-29T23:07:20.240Z,2.20
2017-12-29T23:09:47.711Z,1.83
2017-12-29T23:12:15.170Z,3.67
2017-12-29T23:14:42.648Z,1.63
2017-12-29T23:17:10.114Z,1.83
2017-12-29T23:19:37.593Z,2.50
2017-12-29T23:22:05.048Z,1.93
2017-12-29T23:24:32.514Z,4.30
2017-12-29T23:27:00.868Z,1.80
2017-12-29T23:29:28.349Z,1.83
2017-12-29T23:31:56.617Z,1.40
2017-12-29T23:34:24.077Z,2.10
2017-12-29T23:36:51.529Z,1.80
2017-12-29T23:39:19.007Z,1.40
2017-12-29T23:41:47.225Z,1.93
2017-12-29T23:44:14.706Z,2.70
2017-12-29T23:46:42.163Z,1.80
2017-12-29T23:49:09.639Z,1.60
2017-12-29T23:51:37.099Z,2.13
2017-12-29T23:54:04.573Z,1.53
2017-12-29T23:56:32.810Z,2.03
2017-12-29T23:59:00.287Z,1.77
